sensor_id;sensor_type;location;lat;lon;timestamp;P1;durP1;ratioP1;P2;durP2;ratioP2
10717;SDS011;13513;42.700;23.124;2023-03-05T00:01:44;20.70;;;12.20;;
10717;SDS011;13513;42.700;23.124;2023-03-05T00:04:15;21.83;;;13.20;;
10717;SDS011;13513;42.700;23.124;2023-03-05T00:06:46;20.57;;;11.57;;
10717;SDS011;13513;42.700;23.124;2023-03-05T00:09:17;18.67;;;11.80;;
10717;SDS011;13513;42.700;23.124;2023-03-05T00:11:48;18.57;;;11.67;;
10717;SDS011;13513;42.700;23.124;2023-03-05T00:14:18;21.37;;;12.23;;
10717;SDS011;13513;42.700;23.124;2023-03-05T00:16:49;18.67;;;11.90;;
10717;SDS011;13513;42.700;23.124;2023-03-05T00:19:25;21.77;;;12.47;;
10717;SDS011;13513;42.700;23.124;2023-03-05T00:21:56;17.33;;;11.90;;
10717;SDS011;13513;42.700;23.124;2023-03-05T00:24:27;16.97;;;11.30;;
10717;SDS011;13513;42.700;23.124;2023-03-05T00:26:58;18.10;;;11.73;;
10717;SDS011;13513;42.700;23.124;2023-03-05T00:29:29;17.33;;;11.40;;
10717;SDS011;13513;42.700;23.124;2023-03-05T00:32:00;18.23;;;12.40;;
10717;SDS011;13513;42.700;23.124;2023-03-05T00:34:31;19.40;;;12.37;;
10717;SDS011;13513;42.700;23.124;2023-03-05T00:37:01;18.77;;;11.33;;
10717;SDS011;13513;42.700;23.124;2023-03-05T00:39:32;18.93;;;11.37;;
10717;SDS011;13513;42.700;23.124;2023-03-05T00:42:03;17.70;;;11.07;;
10717;SDS011;13513;42.700;23.124;2023-03-05T00:44:34;19.43;;;10.30;;
10717;SDS011;13513;42.700;23.124;2023-03-05T00:47:05;19.93;;;11.97;;
10717;SDS011;13513;42.700;23.124;2023-03-05T00:49:36;20.77;;;11.77;;
10717;SDS011;13513;42.700;23.124;2023-03-05T00:52:07;15.77;;;11.47;;
10717;SDS011;13513;42.700;23.124;2023-03-05T00:54:37;17.43;;;11.17;;
10717;SDS011;13513;42.700;23.124;2023-03-05T00:57:08;21.90;;;11.80;;
10717;SDS011;13513;42.700;23.124;2023-03-05T00:59:39;15.97;;;10.70;;
10717;SDS011;13513;42.700;23.124;2023-03-05T01:02:10;18.30;;;10.67;;
10717;SDS011;13513;42.700;23.124;2023-03-05T01:04:41;17.43;;;11.13;;
10717;SDS011;13513;42.700;23.124;2023-03-05T01:07:15;22.87;;;13.57;;
10717;SDS011;13513;42.700;23.124;2023-03-05T01:09:45;19.47;;;12.43;;
10717;SDS011;13513;42.700;23.124;2023-03-05T01:12:16;17.57;;;12.37;;
10717;SDS011;13513;42.700;23.124;2023-03-05T01:14:46;20.77;;;12.13;;
10717;SDS011;13513;42.700;23.124;2023-03-05T01:17:17;19.37;;;10.93;;
10717;SDS011;13513;42.700;23.124;2023-03-05T01:19:48;20.83;;;12.03;;
10717;SDS011;13513;42.700;23.124;2023-03-05T01:22:19;17.13;;;11.03;;
10717;SDS011;13513;42.700;23.124;2023-03-05T01:24:50;21.87;;;11.57;;
10717;SDS011;13513;42.700;23.124;2023-03-05T01:27:21;20.43;;;10.87;;
10717;SDS011;13513;42.700;23.124;2023-03-05T01:29:51;21.43;;;12.13;;
10717;SDS011;13513;42.700;23.124;2023-03-05T01:32:22;19.63;;;10.73;;
10717;SDS011;13513;42.700;23.124;2023-03-05T01:34:52;16.10;;;10.13;;
10717;SDS011;13513;42.700;23.124;2023-03-05T01:37:23;17.73;;;11.03;;
10717;SDS011;13513;42.700;23.124;2023-03-05T01:39:54;19.17;;;11.77;;
10717;SDS011;13513;42.700;23.124;2023-03-05T01:42:24;20.97;;;12.27;;
10717;SDS011;13513;42.700;23.124;2023-03-05T01:44:59;22.23;;;11.47;;
10717;SDS011;13513;42.700;23.124;2023-03-05T01:47:37;18.50;;;11.90;;
10717;SDS011;13513;42.700;23.124;2023-03-05T01:50:09;19.90;;;11.43;;
10717;SDS011;13513;42.700;23.124;2023-03-05T01:52:42;20.33;;;11.53;;
10717;SDS011;13513;42.700;23.124;2023-03-05T01:55:14;18.67;;;11.30;;
10717;SDS011;13513;42.700;23.124;2023-03-05T01:57:49;23.97;;;12.70;;
10717;SDS011;13513;42.700;23.124;2023-03-05T02:00:24;23.07;;;11.50;;
10717;SDS011;13513;42.700;23.124;2023-03-05T02:02:59;19.87;;;11.83;;
10717;SDS011;13513;42.700;23.124;2023-03-05T02:05:36;19.27;;;10.83;;
10717;SDS011;13513;42.700;23.124;2023-03-05T02:08:08;16.83;;;11.30;;
10717;SDS011;13513;42.700;23.124;2023-03-05T02:10:41;17.87;;;10.87;;
10717;SDS011;13513;42.700;23.124;2023-03-05T02:13:13;17.57;;;11.23;;
10717;SDS011;13513;42.700;23.124;2023-03-05T02:15:47;22.40;;;11.03;;
10717;SDS011;13513;42.700;23.124;2023-03-05T02:18:20;21.20;;;11.53;;
10717;SDS011;13513;42.700;23.124;2023-03-05T02:21:13;16.37;;;10.77;;
10717;SDS011;13513;42.700;23.124;2023-03-05T02:23:29;19.70;;;11.40;;
10717;SDS011;13513;42.700;23.124;2023-03-05T02:26:02;18.77;;;11.73;;
10717;SDS011;13513;42.700;23.124;2023-03-05T02:28:39;22.83;;;12.10;;
10717;SDS011;13513;42.700;23.124;2023-03-05T02:31:20;17.53;;;10.80;;
10717;SDS011;13513;42.700;23.124;2023-03-05T02:33:52;16.40;;;11.23;;
10717;SDS011;13513;42.700;23.124;2023-03-05T02:36:23;17.67;;;12.03;;
10717;SDS011;13513;42.700;23.124;2023-03-05T02:38:55;21.63;;;11.00;;
10717;SDS011;13513;42.700;23.124;2023-03-05T02:41:26;19.47;;;11.87;;
10717;SDS011;13513;42.700;23.124;2023-03-05T02:43:58;22.00;;;12.40;;
10717;SDS011;13513;42.700;23.124;2023-03-05T02:46:28;18.83;;;12.43;;
10717;SDS011;13513;42.700;23.124;2023-03-05T02:48:57;24.87;;;13.70;;
10717;SDS011;13513;42.700;23.124;2023-03-05T02:51:28;22.63;;;12.90;;
10717;SDS011;13513;42.700;23.124;2023-03-05T02:53:59;21.03;;;13.47;;
10717;SDS011;13513;42.700;23.124;2023-03-05T02:56:29;23.23;;;13.83;;
10717;SDS011;13513;42.700;23.124;2023-03-05T02:59:01;25.40;;;14.10;;
10717;SDS011;13513;42.700;23.124;2023-03-05T03:01:32;23.47;;;13.87;;
10717;SDS011;13513;42.700;23.124;2023-03-05T03:04:03;24.47;;;15.10;;
10717;SDS011;13513;42.700;23.124;2023-03-05T03:06:34;22.60;;;13.40;;
10717;SDS011;13513;42.700;23.124;2023-03-05T03:09:05;24.73;;;13.63;;
10717;SDS011;13513;42.700;23.124;2023-03-05T03:11:36;26.13;;;14.77;;
10717;SDS011;13513;42.700;23.124;2023-03-05T03:14:06;23.93;;;14.80;;
10717;SDS011;13513;42.700;23.124;2023-03-05T03:16:37;24.60;;;15.47;;
10717;SDS011;13513;42.700;23.124;2023-03-05T03:19:08;25.03;;;14.90;;
10717;SDS011;13513;42.700;23.124;2023-03-05T03:21:39;30.70;;;15.77;;
10717;SDS011;13513;42.700;23.124;2023-03-05T03:24:09;27.50;;;16.57;;
10717;SDS011;13513;42.700;23.124;2023-03-05T03:26:40;25.83;;;15.67;;
10717;SDS011;13513;42.700;23.124;2023-03-05T03:29:11;26.43;;;16.33;;
10717;SDS011;13513;42.700;23.124;2023-03-05T03:31:43;25.20;;;15.17;;
10717;SDS011;13513;42.700;23.124;2023-03-05T03:34:13;27.07;;;16.07;;
10717;SDS011;13513;42.700;23.124;2023-03-05T03:36:44;26.57;;;16.03;;
10717;SDS011;13513;42.700;23.124;2023-03-05T03:39:17;24.10;;;15.13;;
10717;SDS011;13513;42.700;23.124;2023-03-05T03:41:49;28.70;;;17.30;;
10717;SDS011;13513;42.700;23.124;2023-03-05T03:44:21;28.00;;;15.47;;
10717;SDS011;13513;42.700;23.124;2023-03-05T03:46:52;29.13;;;17.10;;
10717;SDS011;13513;42.700;23.124;2023-03-05T03:49:23;29.03;;;17.97;;
10717;SDS011;13513;42.700;23.124;2023-03-05T03:51:54;28.67;;;15.63;;
10717;SDS011;13513;42.700;23.124;2023-03-05T03:54:25;24.90;;;15.10;;
10717;SDS011;13513;42.700;23.124;2023-03-05T03:56:56;28.27;;;15.73;;
10717;SDS011;13513;42.700;23.124;2023-03-05T03:59:27;29.50;;;16.47;;
10717;SDS011;13513;42.700;23.124;2023-03-05T04:01:58;27.77;;;16.20;;
10717;SDS011;13513;42.700;23.124;2023-03-05T04:04:28;29.00;;;16.80;;
10717;SDS011;13513;42.700;23.124;2023-03-05T04:06:59;28.67;;;15.93;;
10717;SDS011;13513;42.700;23.124;2023-03-05T04:09:30;26.77;;;15.30;;
10717;SDS011;13513;42.700;23.124;2023-03-05T04:12:00;22.80;;;14.83;;
10717;SDS011;13513;42.700;23.124;2023-03-05T04:14:31;31.33;;;15.73;;
10717;SDS011;13513;42.700;23.124;2023-03-05T04:17:02;29.80;;;15.97;;
10717;SDS011;13513;42.700;23.124;2023-03-05T04:19:33;30.13;;;15.87;;
10717;SDS011;13513;42.700;23.124;2023-03-05T04:22:04;22.83;;;14.57;;
10717;SDS011;13513;42.700;23.124;2023-03-05T04:24:36;22.67;;;14.50;;
10717;SDS011;13513;42.700;23.124;2023-03-05T04:27:06;25.83;;;15.57;;
10717;SDS011;13513;42.700;23.124;2023-03-05T04:29:36;25.87;;;15.83;;
10717;SDS011;13513;42.700;23.124;2023-03-05T04:32:07;28.03;;;14.43;;
10717;SDS011;13513;42.700;23.124;2023-03-05T04:34:37;28.23;;;14.80;;
10717;SDS011;13513;42.700;23.124;2023-03-05T04:37:08;29.93;;;15.10;;
10717;SDS011;13513;42.700;23.124;2023-03-05T04:39:39;24.57;;;14.77;;
10717;SDS011;13513;42.700;23.124;2023-03-05T04:42:09;24.17;;;14.00;;
10717;SDS011;13513;42.700;23.124;2023-03-05T04:44:40;27.57;;;15.30;;
10717;SDS011;13513;42.700;23.124;2023-03-05T04:47:10;25.77;;;14.70;;
10717;SDS011;13513;42.700;23.124;2023-03-05T04:49:41;29.10;;;14.10;;
10717;SDS011;13513;42.700;23.124;2023-03-05T04:52:12;25.50;;;14.13;;
10717;SDS011;13513;42.700;23.124;2023-03-05T04:54:43;24.10;;;14.43;;
10717;SDS011;13513;42.700;23.124;2023-03-05T04:57:13;25.50;;;14.57;;
10717;SDS011;13513;42.700;23.124;2023-03-05T04:59:44;26.43;;;14.53;;
10717;SDS011;13513;42.700;23.124;2023-03-05T05:02:15;26.00;;;14.00;;
10717;SDS011;13513;42.700;23.124;2023-03-05T05:04:52;26.97;;;15.13;;
10717;SDS011;13513;42.700;23.124;2023-03-05T05:07:23;26.53;;;14.30;;
10717;SDS011;13513;42.700;23.124;2023-03-05T05:09:54;25.10;;;13.60;;
10717;SDS011;13513;42.700;23.124;2023-03-05T05:12:29;23.97;;;13.23;;
10717;SDS011;13513;42.700;23.124;2023-03-05T05:15:01;25.63;;;13.63;;
10717;SDS011;13513;42.700;23.124;2023-03-05T05:17:33;23.87;;;13.80;;
10717;SDS011;13513;42.700;23.124;2023-03-05T05:20:05;24.80;;;13.87;;
10717;SDS011;13513;42.700;23.124;2023-03-05T05:22:37;25.17;;;14.27;;
10717;SDS011;13513;42.700;23.124;2023-03-05T05:25:08;22.90;;;13.77;;
10717;SDS011;13513;42.700;23.124;2023-03-05T05:27:39;24.27;;;13.27;;
10717;SDS011;13513;42.700;23.124;2023-03-05T05:30:10;24.40;;;14.07;;
10717;SDS011;13513;42.700;23.124;2023-03-05T05:32:41;24.03;;;13.33;;
10717;SDS011;13513;42.700;23.124;2023-03-05T05:35:12;23.47;;;14.07;;
10717;SDS011;13513;42.700;23.124;2023-03-05T05:37:43;21.30;;;12.23;;
10717;SDS011;13513;42.700;23.124;2023-03-05T05:40:19;26.40;;;13.67;;
10717;SDS011;13513;42.700;23.124;2023-03-05T05:42:50;23.90;;;12.77;;
10717;SDS011;13513;42.700;23.124;2023-03-05T05:45:21;28.03;;;13.30;;
10717;SDS011;13513;42.700;23.124;2023-03-05T05:47:53;20.80;;;12.87;;
10717;SDS011;13513;42.700;23.124;2023-03-05T05:50:24;23.07;;;12.93;;
10717;SDS011;13513;42.700;23.124;2023-03-05T05:52:56;19.67;;;11.77;;
10717;SDS011;13513;42.700;23.124;2023-03-05T05:55:27;20.13;;;12.80;;
10717;SDS011;13513;42.700;23.124;2023-03-05T05:57:57;24.03;;;11.87;;
10717;SDS011;13513;42.700;23.124;2023-03-05T06:00:27;20.40;;;12.70;;
10717;SDS011;13513;42.700;23.124;2023-03-05T06:02:58;22.70;;;13.27;;
10717;SDS011;13513;42.700;23.124;2023-03-05T06:05:29;21.43;;;12.33;;
10717;SDS011;13513;42.700;23.124;2023-03-05T06:08:00;25.90;;;12.57;;
10717;SDS011;13513;42.700;23.124;2023-03-05T06:10:31;20.97;;;12.10;;
10717;SDS011;13513;42.700;23.124;2023-03-05T06:13:02;21.73;;;12.20;;
10717;SDS011;13513;42.700;23.124;2023-03-05T06:15:33;25.63;;;12.73;;
10717;SDS011;13513;42.700;23.124;2023-03-05T06:18:04;22.87;;;12.50;;
10717;SDS011;13513;42.700;23.124;2023-03-05T06:20:37;25.43;;;12.50;;
10717;SDS011;13513;42.700;23.124;2023-03-05T06:23:08;20.60;;;11.83;;
10717;SDS011;13513;42.700;23.124;2023-03-05T06:25:39;30.90;;;12.97;;
10717;SDS011;13513;42.700;23.124;2023-03-05T06:28:10;27.80;;;13.27;;
10717;SDS011;13513;42.700;23.124;2023-03-05T06:30:41;19.43;;;12.13;;
10717;SDS011;13513;42.700;23.124;2023-03-05T06:33:12;22.43;;;12.13;;
10717;SDS011;13513;42.700;23.124;2023-03-05T06:35:43;22.23;;;12.30;;
10717;SDS011;13513;42.700;23.124;2023-03-05T06:38:13;22.17;;;12.80;;
10717;SDS011;13513;42.700;23.124;2023-03-05T06:40:44;20.07;;;12.43;;
10717;SDS011;13513;42.700;23.124;2023-03-05T06:43:15;25.60;;;12.93;;
10717;SDS011;13513;42.700;23.124;2023-03-05T06:45:45;24.00;;;12.43;;
10717;SDS011;13513;42.700;23.124;2023-03-05T06:48:17;23.60;;;12.87;;
10717;SDS011;13513;42.700;23.124;2023-03-05T06:50:50;22.13;;;13.17;;
10717;SDS011;13513;42.700;23.124;2023-03-05T06:53:22;25.00;;;13.10;;
10717;SDS011;13513;42.700;23.124;2023-03-05T06:55:53;23.60;;;12.77;;
10717;SDS011;13513;42.700;23.124;2023-03-05T06:58:24;21.07;;;13.00;;
10717;SDS011;13513;42.700;23.124;2023-03-05T07:00:55;21.50;;;13.73;;
10717;SDS011;13513;42.700;23.124;2023-03-05T07:03:26;21.60;;;12.70;;
10717;SDS011;13513;42.700;23.124;2023-03-05T07:05:57;23.00;;;13.73;;
10717;SDS011;13513;42.700;23.124;2023-03-05T07:08:31;23.10;;;13.73;;
10717;SDS011;13513;42.700;23.124;2023-03-05T07:11:01;19.33;;;13.37;;
10717;SDS011;13513;42.700;23.124;2023-03-05T07:13:33;26.40;;;14.50;;
10717;SDS011;13513;42.700;23.124;2023-03-05T07:16:07;24.63;;;14.07;;
10717;SDS011;13513;42.700;23.124;2023-03-05T07:18:37;25.23;;;14.43;;
10717;SDS011;13513;42.700;23.124;2023-03-05T07:21:08;27.77;;;14.80;;
10717;SDS011;13513;42.700;23.124;2023-03-05T07:23:40;25.30;;;14.63;;
10717;SDS011;13513;42.700;23.124;2023-03-05T07:26:11;21.80;;;14.93;;
10717;SDS011;13513;42.700;23.124;2023-03-05T07:28:42;20.87;;;13.50;;
10717;SDS011;13513;42.700;23.124;2023-03-05T07:31:13;22.20;;;14.80;;
10717;SDS011;13513;42.700;23.124;2023-03-05T07:33:47;25.17;;;14.90;;
10717;SDS011;13513;42.700;23.124;2023-03-05T07:36:18;25.23;;;15.30;;
10717;SDS011;13513;42.700;23.124;2023-03-05T07:38:50;23.47;;;14.67;;
10717;SDS011;13513;42.700;23.124;2023-03-05T07:41:21;22.97;;;14.23;;
10717;SDS011;13513;42.700;23.124;2023-03-05T07:43:52;23.33;;;15.77;;
10717;SDS011;13513;42.700;23.124;2023-03-05T07:46:25;24.60;;;16.97;;
10717;SDS011;13513;42.700;23.124;2023-03-05T07:48:55;26.13;;;16.50;;
10717;SDS011;13513;42.700;23.124;2023-03-05T07:51:26;24.73;;;15.53;;
10717;SDS011;13513;42.700;23.124;2023-03-05T07:53:57;26.57;;;17.63;;
10717;SDS011;13513;42.700;23.124;2023-03-05T07:56:34;26.60;;;17.07;;
10717;SDS011;13513;42.700;23.124;2023-03-05T07:59:02;23.70;;;16.00;;
10717;SDS011;13513;42.700;23.124;2023-03-05T08:01:33;25.70;;;16.53;;
10717;SDS011;13513;42.700;23.124;2023-03-05T08:04:44;23.80;;;15.70;;
10717;SDS011;13513;42.700;23.124;2023-03-05T08:07:16;29.90;;;17.40;;
10717;SDS011;13513;42.700;23.124;2023-03-05T08:09:46;23.10;;;16.50;;
10717;SDS011;13513;42.700;23.124;2023-03-05T08:12:19;28.12;;;15.65;;
10717;SDS011;13513;42.700;23.124;2023-03-05T08:14:49;24.75;;;16.30;;
10717;SDS011;13513;42.700;23.124;2023-03-05T08:17:19;27.63;;;15.87;;
10717;SDS011;13513;42.700;23.124;2023-03-05T08:19:51;24.90;;;16.83;;
10717;SDS011;13513;42.700;23.124;2023-03-05T08:22:22;24.70;;;15.95;;
10717;SDS011;13513;42.700;23.124;2023-03-05T08:24:52;22.33;;;14.93;;
10717;SDS011;13513;42.700;23.124;2023-03-05T08:27:23;23.57;;;16.30;;
10717;SDS011;13513;42.700;23.124;2023-03-05T08:29:55;38.20;;;27.27;;
10717;SDS011;13513;42.700;23.124;2023-03-05T08:32:25;40.60;;;27.13;;
10717;SDS011;13513;42.700;23.124;2023-03-05T08:34:56;35.20;;;24.97;;
10717;SDS011;13513;42.700;23.124;2023-03-05T08:37:27;26.80;;;15.20;;
10717;SDS011;13513;42.700;23.124;2023-03-05T08:39:58;24.80;;;15.77;;
10717;SDS011;13513;42.700;23.124;2023-03-05T08:42:30;26.70;;;15.60;;
10717;SDS011;13513;42.700;23.124;2023-03-05T08:45:01;24.37;;;14.90;;
10717;SDS011;13513;42.700;23.124;2023-03-05T08:47:32;23.70;;;15.80;;
10717;SDS011;13513;42.700;23.124;2023-03-05T08:50:03;23.63;;;16.17;;
10717;SDS011;13513;42.700;23.124;2023-03-05T08:52:33;26.37;;;17.10;;
10717;SDS011;13513;42.700;23.124;2023-03-05T08:55:04;22.37;;;15.13;;
10717;SDS011;13513;42.700;23.124;2023-03-05T08:57:36;23.10;;;15.70;;
10717;SDS011;13513;42.700;23.124;2023-03-05T09:00:07;23.83;;;15.40;;
10717;SDS011;13513;42.700;23.124;2023-03-05T09:02:39;22.93;;;15.50;;
10717;SDS011;13513;42.700;23.124;2023-03-05T09:05:15;25.00;;;15.50;;
10717;SDS011;13513;42.700;23.124;2023-03-05T09:07:46;22.03;;;14.97;;
10717;SDS011;13513;42.700;23.124;2023-03-05T09:10:17;21.17;;;14.47;;
10717;SDS011;13513;42.700;23.124;2023-03-05T09:12:48;24.23;;;15.27;;
10717;SDS011;13513;42.700;23.124;2023-03-05T09:15:17;20.50;;;14.50;;
10717;SDS011;13513;42.700;23.124;2023-03-05T09:17:51;24.10;;;15.27;;
10717;SDS011;13513;42.700;23.124;2023-03-05T09:20:21;25.33;;;15.27;;
10717;SDS011;13513;42.700;23.124;2023-03-05T09:22:52;22.77;;;15.20;;
10717;SDS011;13513;42.700;23.124;2023-03-05T09:25:23;22.20;;;14.60;;
10717;SDS011;13513;42.700;23.124;2023-03-05T09:27:53;23.87;;;15.50;;
10717;SDS011;13513;42.700;23.124;2023-03-05T09:30:24;20.20;;;13.83;;
10717;SDS011;13513;42.700;23.124;2023-03-05T09:32:54;20.70;;;14.57;;
10717;SDS011;13513;42.700;23.124;2023-03-05T09:35:24;21.77;;;14.97;;
10717;SDS011;13513;42.700;23.124;2023-03-05T09:37:54;20.07;;;13.70;;
10717;SDS011;13513;42.700;23.124;2023-03-05T09:40:25;21.07;;;14.03;;
10717;SDS011;13513;42.700;23.124;2023-03-05T09:43:20;20.67;;;14.60;;
10717;SDS011;13513;42.700;23.124;2023-03-05T09:49:13;23.30;;;14.80;;
10717;SDS011;13513;42.700;23.124;2023-03-05T09:51:41;20.83;;;14.57;;
10717;SDS011;13513;42.700;23.124;2023-03-05T09:54:18;20.07;;;14.17;;
10717;SDS011;13513;42.700;23.124;2023-03-05T09:56:54;21.17;;;14.13;;
10717;SDS011;13513;42.700;23.124;2023-03-05T09:59:34;18.77;;;12.70;;
10717;SDS011;13513;42.700;23.124;2023-03-05T10:02:22;18.43;;;13.70;;
10717;SDS011;13513;42.700;23.124;2023-03-05T10:05:01;24.17;;;14.20;;
10717;SDS011;13513;42.700;23.124;2023-03-05T10:07:52;20.07;;;14.00;;
10717;SDS011;13513;42.700;23.124;2023-03-05T10:10:22;21.10;;;14.30;;
10717;SDS011;13513;42.700;23.124;2023-03-05T10:12:55;21.50;;;13.60;;
10717;SDS011;13513;42.700;23.124;2023-03-05T10:15:36;22.07;;;13.90;;
10717;SDS011;13513;42.700;23.124;2023-03-05T10:18:52;22.03;;;13.93;;
10717;SDS011;13513;42.700;23.124;2023-03-05T10:20:51;20.13;;;13.83;;
10717;SDS011;13513;42.700;23.124;2023-03-05T10:29:14;19.03;;;12.50;;
10717;SDS011;13513;42.700;23.124;2023-03-05T10:35:05;21.17;;;13.03;;
10717;SDS011;13513;42.700;23.124;2023-03-05T10:40:10;20.50;;;13.03;;
10717;SDS011;13513;42.700;23.124;2023-03-05T10:42:47;19.33;;;12.27;;
10717;SDS011;13513;42.700;23.124;2023-03-05T10:45:31;20.70;;;12.40;;
10717;SDS011;13513;42.700;23.124;2023-03-05T10:48:08;19.00;;;12.00;;
10717;SDS011;13513;42.700;23.124;2023-03-05T10:51:01;16.30;;;11.53;;
10717;SDS011;13513;42.700;23.124;2023-03-05T10:53:53;18.40;;;12.50;;
10717;SDS011;13513;42.700;23.124;2023-03-05T10:56:27;18.50;;;12.07;;
10717;SDS011;13513;42.700;23.124;2023-03-05T10:58:58;18.70;;;12.90;;
10717;SDS011;13513;42.700;23.124;2023-03-05T11:01:29;18.60;;;12.37;;
10717;SDS011;13513;42.700;23.124;2023-03-05T11:06:39;23.27;;;13.20;;
10717;SDS011;13513;42.700;23.124;2023-03-05T11:12:32;19.17;;;12.40;;
10717;SDS011;13513;42.700;23.124;2023-03-05T11:14:30;22.23;;;12.73;;
10717;SDS011;13513;42.700;23.124;2023-03-05T11:17:03;21.70;;;11.83;;
10717;SDS011;13513;42.700;23.124;2023-03-05T11:19:50;14.47;;;10.33;;
10717;SDS011;13513;42.700;23.124;2023-03-05T11:22:21;15.43;;;10.93;;
10717;SDS011;13513;42.700;23.124;2023-03-05T11:27:44;18.77;;;11.47;;
10717;SDS011;13513;42.700;23.124;2023-03-05T11:30:21;17.47;;;12.40;;
10717;SDS011;13513;42.700;23.124;2023-03-05T11:35:46;17.30;;;11.03;;
10717;SDS011;13513;42.700;23.124;2023-03-05T11:38:21;14.67;;;10.70;;
10717;SDS011;13513;42.700;23.124;2023-03-05T11:40:54;17.80;;;11.67;;
10717;SDS011;13513;42.700;23.124;2023-03-05T11:43:25;15.80;;;11.53;;
10717;SDS011;13513;42.700;23.124;2023-03-05T11:45:58;18.10;;;12.20;;
10717;SDS011;13513;42.700;23.124;2023-03-05T11:48:34;16.17;;;10.37;;
10717;SDS011;13513;42.700;23.124;2023-03-05T11:51:18;15.77;;;10.90;;
10717;SDS011;13513;42.700;23.124;2023-03-05T11:53:41;16.17;;;10.60;;
10717;SDS011;13513;42.700;23.124;2023-03-05T11:56:16;15.00;;;10.37;;
10717;SDS011;13513;42.700;23.124;2023-03-05T12:01:50;11.85;;;8.78;;
10717;SDS011;13513;42.700;23.124;2023-03-05T12:04:21;13.37;;;9.33;;
10717;SDS011;13513;42.700;23.124;2023-03-05T12:06:54;12.47;;;9.25;;
10717;SDS011;13513;42.700;23.124;2023-03-05T12:09:45;12.93;;;8.48;;
10717;SDS011;13513;42.700;23.124;2023-03-05T12:22:58;14.37;;;9.43;;
10717;SDS011;13513;42.700;23.124;2023-03-05T12:25:33;13.28;;;9.23;;
10717;SDS011;13513;42.700;23.124;2023-03-05T12:28:08;13.20;;;8.97;;
10717;SDS011;13513;42.700;23.124;2023-03-05T12:33:29;16.10;;;9.37;;
10717;SDS011;13513;42.700;23.124;2023-03-05T12:38:54;14.10;;;9.47;;
10717;SDS011;13513;42.700;23.124;2023-03-05T12:46:43;12.63;;;9.43;;
10717;SDS011;13513;42.700;23.124;2023-03-05T12:51:55;11.73;;;9.38;;
10717;SDS011;13513;42.700;23.124;2023-03-05T12:54:33;10.70;;;7.87;;
10717;SDS011;13513;42.700;23.124;2023-03-05T12:57:14;13.55;;;8.08;;
10717;SDS011;13513;42.700;23.124;2023-03-05T12:59:45;14.13;;;9.20;;
10717;SDS011;13513;42.700;23.124;2023-03-05T13:02:31;12.13;;;8.45;;
10717;SDS011;13513;42.700;23.124;2023-03-05T13:06:19;14.70;;;7.85;;
10717;SDS011;13513;42.700;23.124;2023-03-05T13:08:10;10.65;;;8.10;;
10717;SDS011;13513;42.700;23.124;2023-03-05T13:10:54;14.00;;;10.03;;
10717;SDS011;13513;42.700;23.124;2023-03-05T13:13:28;16.00;;;10.45;;
10717;SDS011;13513;42.700;23.124;2023-03-05T13:16:00;15.60;;;10.58;;
10717;SDS011;13513;42.700;23.124;2023-03-05T13:18:31;14.83;;;10.43;;
10717;SDS011;13513;42.700;23.124;2023-03-05T13:21:15;17.02;;;10.08;;
10717;SDS011;13513;42.700;23.124;2023-03-05T13:23:47;15.20;;;10.75;;
10717;SDS011;13513;42.700;23.124;2023-03-05T13:26:19;13.27;;;10.07;;
10717;SDS011;13513;42.700;23.124;2023-03-05T13:31:47;14.17;;;10.37;;
10717;SDS011;13513;42.700;23.124;2023-03-05T13:34:21;15.37;;;10.07;;
10717;SDS011;13513;42.700;23.124;2023-03-05T13:37:01;15.57;;;10.67;;
10717;SDS011;13513;42.700;23.124;2023-03-05T13:39:39;14.53;;;9.90;;
10717;SDS011;13513;42.700;23.124;2023-03-05T13:42:16;15.17;;;10.23;;
10717;SDS011;13513;42.700;23.124;2023-03-05T13:44:55;15.30;;;10.33;;
10717;SDS011;13513;42.700;23.124;2023-03-05T13:47:33;19.67;;;13.93;;
10717;SDS011;13513;42.700;23.124;2023-03-05T13:50:06;16.50;;;11.37;;
10717;SDS011;13513;42.700;23.124;2023-03-05T13:52:37;15.67;;;10.37;;
10717;SDS011;13513;42.700;23.124;2023-03-05T13:55:14;15.13;;;10.43;;
10717;SDS011;13513;42.700;23.124;2023-03-05T13:57:47;16.80;;;10.90;;
10717;SDS011;13513;42.700;23.124;2023-03-05T14:00:25;14.87;;;10.07;;
10717;SDS011;13513;42.700;23.124;2023-03-05T14:03:08;16.17;;;11.07;;
10717;SDS011;13513;42.700;23.124;2023-03-05T14:05:42;15.73;;;9.93;;
10717;SDS011;13513;42.700;23.124;2023-03-05T14:08:17;16.33;;;10.37;;
10717;SDS011;13513;42.700;23.124;2023-03-05T14:10:49;15.10;;;9.97;;
10717;SDS011;13513;42.700;23.124;2023-03-05T14:13:23;17.80;;;10.70;;
10717;SDS011;13513;42.700;23.124;2023-03-05T14:16:08;14.87;;;10.37;;
10717;SDS011;13513;42.700;23.124;2023-03-05T14:18:56;19.83;;;10.07;;
10717;SDS011;13513;42.700;23.124;2023-03-05T14:21:45;13.77;;;10.03;;
10717;SDS011;13513;42.700;23.124;2023-03-05T14:24:21;18.33;;;10.23;;
10717;SDS011;13513;42.700;23.124;2023-03-05T14:26:52;14.80;;;10.00;;
10717;SDS011;13513;42.700;23.124;2023-03-05T14:29:28;18.20;;;10.17;;
10717;SDS011;13513;42.700;23.124;2023-03-05T14:32:05;15.50;;;10.80;;
10717;SDS011;13513;42.700;23.124;2023-03-05T14:34:38;15.37;;;10.73;;
10717;SDS011;13513;42.700;23.124;2023-03-05T14:37:16;13.90;;;9.67;;
10717;SDS011;13513;42.700;23.124;2023-03-05T14:39:52;17.13;;;11.23;;
10717;SDS011;13513;42.700;23.124;2023-03-05T14:42:29;15.80;;;10.73;;
10717;SDS011;13513;42.700;23.124;2023-03-05T14:45:10;17.40;;;10.67;;
10717;SDS011;13513;42.700;23.124;2023-03-05T14:47:41;14.57;;;10.57;;
10717;SDS011;13513;42.700;23.124;2023-03-05T14:50:18;22.03;;;10.77;;
10717;SDS011;13513;42.700;23.124;2023-03-05T14:52:54;18.20;;;10.30;;
10717;SDS011;13513;42.700;23.124;2023-03-05T14:55:26;18.07;;;11.10;;
10717;SDS011;13513;42.700;23.124;2023-03-05T14:58:00;15.03;;;10.27;;
10717;SDS011;13513;42.700;23.124;2023-03-05T15:00:32;15.77;;;10.40;;
10717;SDS011;13513;42.700;23.124;2023-03-05T15:03:02;17.90;;;10.70;;
10717;SDS011;13513;42.700;23.124;2023-03-05T15:05:32;16.67;;;10.77;;
10717;SDS011;13513;42.700;23.124;2023-03-05T15:08:03;21.47;;;11.13;;
10717;SDS011;13513;42.700;23.124;2023-03-05T15:10:34;22.33;;;11.63;;
10717;SDS011;13513;42.700;23.124;2023-03-05T15:13:05;17.00;;;11.97;;
10717;SDS011;13513;42.700;23.124;2023-03-05T15:15:37;18.57;;;11.03;;
10717;SDS011;13513;42.700;23.124;2023-03-05T15:18:11;16.63;;;11.40;;
10717;SDS011;13513;42.700;23.124;2023-03-05T15:20:42;14.27;;;10.37;;
10717;SDS011;13513;42.700;23.124;2023-03-05T15:23:13;15.40;;;10.13;;
10717;SDS011;13513;42.700;23.124;2023-03-05T15:25:44;15.60;;;10.50;;
10717;SDS011;13513;42.700;23.124;2023-03-05T15:28:14;17.73;;;10.37;;
10717;SDS011;13513;42.700;23.124;2023-03-05T15:30:45;16.60;;;10.33;;
10717;SDS011;13513;42.700;23.124;2023-03-05T15:33:16;16.40;;;10.63;;
10717;SDS011;13513;42.700;23.124;2023-03-05T15:35:47;18.07;;;10.67;;
10717;SDS011;13513;42.700;23.124;2023-03-05T15:38:18;15.70;;;10.20;;